首页
METAR-TAF:

METAR-TAF

机场 :

科斯雷國際機場

科斯雷, 密克罗尼西亚群岛

纬度: 05-21N, 经度: 162-57E, 海拔: 3米

当前天气观测

该预报发布于21分钟前的22:10 UTC
风速4节,风向
温度 26°C
湿度 89%
气压 1009 hPa
能見度: 16.1公里
散云层高于1200英尺
多云层高于12000英尺
阴天层高于29000英尺

METAR: PTSA 262210Z 08004KT 10SM SCT012 BKN120 OVC290 26/24 A2979 RMK FIRST

时间: 09:31 (22:31 UTC)

预报

该预报发布于6分钟前的22:25 UTC
预报有效从26日的 22点(UTC)到 27日的 18点(UTC)
风速10节,风向
能見度: 10公里
散云层高于1200英尺
多云层高于12000英尺
附近有阵雨

TAF: PTSA 262225Z 2622/2718 08010KT P6SM VCSH SCT012 BKN120

超过4000个机场的气象观测和天气预报(METAR&TAF报告)。

可查询的气象台以黄色和红色小点在地图上表示。

将鼠标移到小点上方,可查看气象台名称。

然后点击查看天气观测和预报。

如需切换地图:点击带黑十字的绿色按钮放大地图;点击带横线的绿色按钮缩小地图;或者点击绿色箭头查看邻近地区的地图。


METAR-TAF: